sensor_id;sensor_type;location;lat;lon;timestamp;pressure;altitude;pressure_sealevel;temperature;humidity
59588;BME280;45412;54.472;18.464;2024-02-15T00:00:26;100057.45;;;4.07;100.00
59588;BME280;45412;54.472;18.464;2024-02-15T00:03:33;100055.43;;;4.08;100.00
59588;BME280;45412;54.472;18.464;2024-02-15T00:06:21;100055.09;;;4.08;100.00
59588;BME280;45412;54.472;18.464;2024-02-15T00:09:08;100052.79;;;4.05;100.00
59588;BME280;45412;54.472;18.464;2024-02-15T00:11:56;100048.59;;;4.04;100.00
59588;BME280;45412;54.472;18.464;2024-02-15T00:14:42;100048.92;;;4.05;100.00
59588;BME280;45412;54.472;18.464;2024-02-15T00:17:29;100049.73;;;4.07;100.00
59588;BME280;45412;54.472;18.464;2024-02-15T00:20:15;100048.11;;;4.07;100.00
59588;BME280;45412;54.472;18.464;2024-02-15T00:23:03;100044.70;;;4.09;100.00
59588;BME280;45412;54.472;18.464;2024-02-15T00:25:50;100036.46;;;4.08;100.00
59588;BME280;45412;54.472;18.464;2024-02-15T00:28:36;100034.48;;;4.06;100.00
59588;BME280;45412;54.472;18.464;2024-02-15T00:31:22;100039.08;;;4.05;100.00
59588;BME280;45412;54.472;18.464;2024-02-15T00:34:09;100035.86;;;4.03;100.00
59588;BME280;45412;54.472;18.464;2024-02-15T00:36:56;100039.80;;;4.02;100.00
59588;BME280;45412;54.472;18.464;2024-02-15T00:39:42;100041.89;;;4.02;100.00
59588;BME280;45412;54.472;18.464;2024-02-15T00:42:28;100037.51;;;4.02;100.00
59588;BME280;45412;54.472;18.464;2024-02-15T00:45:14;100037.42;;;4.03;100.00
59588;BME280;45412;54.472;18.464;2024-02-15T00:48:01;100040.14;;;4.05;100.00
59588;BME280;45412;54.472;18.464;2024-02-15T00:50:47;100037.02;;;4.05;100.00
59588;BME280;45412;54.472;18.464;2024-02-15T00:53:34;100040.73;;;4.04;100.00
59588;BME280;45412;54.472;18.464;2024-02-15T00:56:20;100040.52;;;4.04;100.00
59588;BME280;45412;54.472;18.464;2024-02-15T00:59:08;100042.47;;;4.04;100.00
59588;BME280;45412;54.472;18.464;2024-02-15T01:01:55;100044.16;;;4.05;100.00
59588;BME280;45412;54.472;18.464;2024-02-15T01:04:42;100044.44;;;4.07;100.00
59588;BME280;45412;54.472;18.464;2024-02-15T01:07:30;100043.27;;;4.06;100.00
59588;BME280;45412;54.472;18.464;2024-02-15T01:10:16;100041.66;;;4.06;100.00
59588;BME280;45412;54.472;18.464;2024-02-15T01:13:03;100038.52;;;4.06;100.00
59588;BME280;45412;54.472;18.464;2024-02-15T01:15:49;100034.39;;;4.08;100.00
59588;BME280;45412;54.472;18.464;2024-02-15T01:18:36;100030.84;;;4.08;100.00
59588;BME280;45412;54.472;18.464;2024-02-15T01:21:22;100030.04;;;4.07;100.00
59588;BME280;45412;54.472;18.464;2024-02-15T01:24:08;100030.78;;;4.06;100.00
59588;BME280;45412;54.472;18.464;2024-02-15T01:26:54;100028.58;;;4.04;100.00
59588;BME280;45412;54.472;18.464;2024-02-15T01:29:41;100031.41;;;4.04;100.00
59588;BME280;45412;54.472;18.464;2024-02-15T01:32:28;100026.92;;;4.06;100.00
59588;BME280;45412;54.472;18.464;2024-02-15T01:35:16;100028.79;;;4.07;100.00
59588;BME280;45412;54.472;18.464;2024-02-15T01:38:02;100024.77;;;4.07;100.00
59588;BME280;45412;54.472;18.464;2024-02-15T01:40:49;100019.18;;;4.06;100.00
59588;BME280;45412;54.472;18.464;2024-02-15T01:43:37;100017.42;;;4.07;100.00
59588;BME280;45412;54.472;18.464;2024-02-15T01:46:24;100019.01;;;4.06;100.00
59588;BME280;45412;54.472;18.464;2024-02-15T01:49:11;100012.02;;;4.05;100.00
59588;BME280;45412;54.472;18.464;2024-02-15T01:51:58;100011.81;;;4.06;100.00
59588;BME280;45412;54.472;18.464;2024-02-15T01:54:46;100005.94;;;4.05;100.00
59588;BME280;45412;54.472;18.464;2024-02-15T01:57:32;100005.37;;;4.02;100.00
59588;BME280;45412;54.472;18.464;2024-02-15T02:00:19;100003.50;;;4.01;100.00
59588;BME280;45412;54.472;18.464;2024-02-15T02:03:05;100001.75;;;4.01;100.00
59588;BME280;45412;54.472;18.464;2024-02-15T02:05:52;100002.30;;;4.00;100.00
59588;BME280;45412;54.472;18.464;2024-02-15T02:08:39;100001.29;;;3.99;100.00
59588;BME280;45412;54.472;18.464;2024-02-15T02:11:25;100004.92;;;4.01;100.00
59588;BME280;45412;54.472;18.464;2024-02-15T02:14:12;100005.13;;;4.03;100.00
59588;BME280;45412;54.472;18.464;2024-02-15T02:17:12;100007.09;;;4.06;100.00
59588;BME280;45412;54.472;18.464;2024-02-15T02:19:59;100002.57;;;4.09;100.00
59588;BME280;45412;54.472;18.464;2024-02-15T02:22:49;99993.98;;;4.12;100.00
59588;BME280;45412;54.472;18.464;2024-02-15T02:25:38;99993.52;;;4.14;100.00
59588;BME280;45412;54.472;18.464;2024-02-15T02:28:24;99995.57;;;4.15;100.00
59588;BME280;45412;54.472;18.464;2024-02-15T02:31:10;99991.49;;;4.16;100.00
59588;BME280;45412;54.472;18.464;2024-02-15T02:33:57;99988.20;;;4.18;100.00
59588;BME280;45412;54.472;18.464;2024-02-15T02:36:44;99985.25;;;4.18;100.00
59588;BME280;45412;54.472;18.464;2024-02-15T02:39:31;99980.86;;;4.17;100.00
59588;BME280;45412;54.472;18.464;2024-02-15T02:42:18;99983.20;;;4.20;100.00
59588;BME280;45412;54.472;18.464;2024-02-15T02:45:04;99982.67;;;4.17;100.00
59588;BME280;45412;54.472;18.464;2024-02-15T02:47:52;99980.07;;;4.16;100.00
59588;BME280;45412;54.472;18.464;2024-02-15T02:50:40;99977.66;;;4.15;100.00
59588;BME280;45412;54.472;18.464;2024-02-15T02:53:26;99974.16;;;4.15;100.00
59588;BME280;45412;54.472;18.464;2024-02-15T02:56:12;99970.49;;;4.14;100.00
59588;BME280;45412;54.472;18.464;2024-02-15T02:58:59;99972.11;;;4.14;100.00
59588;BME280;45412;54.472;18.464;2024-02-15T03:01:45;99973.25;;;4.15;100.00
59588;BME280;45412;54.472;18.464;2024-02-15T03:04:32;99973.16;;;4.17;100.00
59588;BME280;45412;54.472;18.464;2024-02-15T03:07:19;99974.30;;;4.19;100.00
59588;BME280;45412;54.472;18.464;2024-02-15T03:10:05;99975.29;;;4.17;100.00
59588;BME280;45412;54.472;18.464;2024-02-15T03:12:54;99972.67;;;4.17;100.00
59588;BME280;45412;54.472;18.464;2024-02-15T03:15:41;99970.52;;;4.14;100.00
59588;BME280;45412;54.472;18.464;2024-02-15T03:18:27;99976.46;;;4.18;100.00
59588;BME280;45412;54.472;18.464;2024-02-15T03:21:14;99972.71;;;4.19;100.00
59588;BME280;45412;54.472;18.464;2024-02-15T03:24:00;99978.17;;;4.22;100.00
59588;BME280;45412;54.472;18.464;2024-02-15T03:26:47;99976.92;;;4.23;100.00
59588;BME280;45412;54.472;18.464;2024-02-15T03:29:33;99980.77;;;4.26;100.00
59588;BME280;45412;54.472;18.464;2024-02-15T03:32:21;99978.73;;;4.28;100.00
59588;BME280;45412;54.472;18.464;2024-02-15T03:35:08;99982.36;;;4.29;100.00
59588;BME280;45412;54.472;18.464;2024-02-15T03:37:54;99983.06;;;4.29;100.00
59588;BME280;45412;54.472;18.464;2024-02-15T03:40:40;99982.74;;;4.32;100.00
59588;BME280;45412;54.472;18.464;2024-02-15T03:43:26;99989.95;;;4.35;100.00
59588;BME280;45412;54.472;18.464;2024-02-15T03:46:13;99990.17;;;4.38;100.00
59588;BME280;45412;54.472;18.464;2024-02-15T03:49:00;99986.33;;;4.41;100.00
59588;BME280;45412;54.472;18.464;2024-02-15T03:51:47;99991.35;;;4.45;100.00
59588;BME280;45412;54.472;18.464;2024-02-15T03:54:35;99986.02;;;4.47;100.00
59588;BME280;45412;54.472;18.464;2024-02-15T03:57:21;99984.63;;;4.50;100.00
59588;BME280;45412;54.472;18.464;2024-02-15T04:00:08;99985.02;;;4.49;100.00
59588;BME280;45412;54.472;18.464;2024-02-15T04:02:56;99981.88;;;4.48;100.00
59588;BME280;45412;54.472;18.464;2024-02-15T04:05:43;99976.79;;;4.48;100.00
59588;BME280;45412;54.472;18.464;2024-02-15T04:08:30;99975.42;;;4.48;100.00
59588;BME280;45412;54.472;18.464;2024-02-15T04:11:16;99975.06;;;4.48;100.00
59588;BME280;45412;54.472;18.464;2024-02-15T04:14:02;99976.93;;;4.49;100.00
59588;BME280;45412;54.472;18.464;2024-02-15T04:16:48;99980.46;;;4.48;100.00
59588;BME280;45412;54.472;18.464;2024-02-15T04:19:34;99975.08;;;4.48;100.00
59588;BME280;45412;54.472;18.464;2024-02-15T04:22:20;99973.60;;;4.49;100.00
59588;BME280;45412;54.472;18.464;2024-02-15T04:25:07;99976.17;;;4.50;100.00
59588;BME280;45412;54.472;18.464;2024-02-15T04:28:02;99974.30;;;4.49;100.00
59588;BME280;45412;54.472;18.464;2024-02-15T04:30:49;99972.58;;;4.48;100.00
59588;BME280;45412;54.472;18.464;2024-02-15T04:33:35;99975.52;;;4.49;100.00
59588;BME280;45412;54.472;18.464;2024-02-15T04:36:22;99972.46;;;4.50;100.00
59588;BME280;45412;54.472;18.464;2024-02-15T04:39:12;99975.34;;;4.49;100.00
59588;BME280;45412;54.472;18.464;2024-02-15T04:42:09;99972.09;;;4.51;100.00
59588;BME280;45412;54.472;18.464;2024-02-15T04:44:57;99972.38;;;4.52;100.00
59588;BME280;45412;54.472;18.464;2024-02-15T04:47:44;99970.41;;;4.52;100.00
59588;BME280;45412;54.472;18.464;2024-02-15T04:50:35;99971.13;;;4.52;100.00
59588;BME280;45412;54.472;18.464;2024-02-15T04:53:22;99959.25;;;4.51;100.00
59588;BME280;45412;54.472;18.464;2024-02-15T04:56:08;99964.23;;;4.56;100.00
59588;BME280;45412;54.472;18.464;2024-02-15T04:58:59;99964.85;;;4.58;100.00
59588;BME280;45412;54.472;18.464;2024-02-15T05:01:46;99962.75;;;4.58;100.00
59588;BME280;45412;54.472;18.464;2024-02-15T05:04:32;99967.82;;;4.58;100.00
59588;BME280;45412;54.472;18.464;2024-02-15T05:07:22;99966.74;;;4.58;100.00
59588;BME280;45412;54.472;18.464;2024-02-15T05:10:09;99966.90;;;4.59;100.00
59588;BME280;45412;54.472;18.464;2024-02-15T05:12:56;99969.11;;;4.60;100.00
59588;BME280;45412;54.472;18.464;2024-02-15T05:15:42;99967.83;;;4.62;100.00
59588;BME280;45412;54.472;18.464;2024-02-15T05:18:28;99969.56;;;4.65;100.00
59588;BME280;45412;54.472;18.464;2024-02-15T05:21:16;99972.30;;;4.66;100.00
59588;BME280;45412;54.472;18.464;2024-02-15T05:24:05;99969.27;;;4.67;100.00
59588;BME280;45412;54.472;18.464;2024-02-15T05:26:51;99968.73;;;4.67;100.00
59588;BME280;45412;54.472;18.464;2024-02-15T05:29:38;99971.60;;;4.69;100.00
59588;BME280;45412;54.472;18.464;2024-02-15T05:32:25;99977.77;;;4.72;100.00
59588;BME280;45412;54.472;18.464;2024-02-15T05:35:12;99974.95;;;4.75;100.00
59588;BME280;45412;54.472;18.464;2024-02-15T05:37:58;99974.95;;;4.79;100.00
59588;BME280;45412;54.472;18.464;2024-02-15T05:40:44;99975.92;;;4.80;100.00
59588;BME280;45412;54.472;18.464;2024-02-15T05:43:31;99978.84;;;4.82;100.00
59588;BME280;45412;54.472;18.464;2024-02-15T05:46:19;99974.91;;;4.83;100.00
59588;BME280;45412;54.472;18.464;2024-02-15T05:49:07;99979.02;;;4.85;100.00
59588;BME280;45412;54.472;18.464;2024-02-15T05:51:59;99988.02;;;4.87;100.00
59588;BME280;45412;54.472;18.464;2024-02-15T05:54:46;99989.70;;;4.89;100.00
59588;BME280;45412;54.472;18.464;2024-02-15T05:57:31;99990.11;;;4.91;100.00
59588;BME280;45412;54.472;18.464;2024-02-15T06:00:18;99993.11;;;4.94;100.00
59588;BME280;45412;54.472;18.464;2024-02-15T06:03:08;99993.23;;;4.95;100.00
59588;BME280;45412;54.472;18.464;2024-02-15T06:05:55;99991.92;;;4.96;100.00
59588;BME280;45412;54.472;18.464;2024-02-15T06:08:46;99995.52;;;4.98;100.00
59588;BME280;45412;54.472;18.464;2024-02-15T06:11:33;99997.34;;;5.00;100.00
59588;BME280;45412;54.472;18.464;2024-02-15T06:14:20;99996.26;;;5.01;100.00
59588;BME280;45412;54.472;18.464;2024-02-15T06:17:06;99998.79;;;5.02;100.00
59588;BME280;45412;54.472;18.464;2024-02-15T06:19:52;100000.82;;;5.04;100.00
59588;BME280;45412;54.472;18.464;2024-02-15T06:22:38;100005.09;;;5.06;100.00
59588;BME280;45412;54.472;18.464;2024-02-15T06:25:25;100001.20;;;5.06;100.00
59588;BME280;45412;54.472;18.464;2024-02-15T06:28:11;100004.27;;;5.08;100.00
59588;BME280;45412;54.472;18.464;2024-02-15T06:31:26;100006.77;;;5.11;100.00
59588;BME280;45412;54.472;18.464;2024-02-15T06:34:31;100004.89;;;5.13;100.00
59588;BME280;45412;54.472;18.464;2024-02-15T06:37:37;100006.55;;;5.15;100.00
59588;BME280;45412;54.472;18.464;2024-02-15T06:40:42;100010.69;;;5.17;100.00
59588;BME280;45412;54.472;18.464;2024-02-15T06:43:28;100011.84;;;5.18;100.00
59588;BME280;45412;54.472;18.464;2024-02-15T06:46:14;100011.05;;;5.19;100.00
59588;BME280;45412;54.472;18.464;2024-02-15T06:49:01;100017.50;;;5.26;100.00
59588;BME280;45412;54.472;18.464;2024-02-15T06:51:48;100009.98;;;5.32;100.00
59588;BME280;45412;54.472;18.464;2024-02-15T06:54:38;100009.21;;;5.40;100.00
59588;BME280;45412;54.472;18.464;2024-02-15T06:57:24;100012.67;;;5.47;100.00
59588;BME280;45412;54.472;18.464;2024-02-15T07:00:12;100004.65;;;5.49;100.00
59588;BME280;45412;54.472;18.464;2024-02-15T07:03:01;100009.34;;;5.59;100.00
59588;BME280;45412;54.472;18.464;2024-02-15T07:05:48;100005.38;;;5.64;100.00
59588;BME280;45412;54.472;18.464;2024-02-15T07:08:36;100009.59;;;5.70;100.00
59588;BME280;45412;54.472;18.464;2024-02-15T07:11:22;100011.30;;;5.73;100.00
59588;BME280;45412;54.472;18.464;2024-02-15T07:14:08;100016.11;;;5.76;100.00
59588;BME280;45412;54.472;18.464;2024-02-15T07:16:55;100020.46;;;5.79;100.00
59588;BME280;45412;54.472;18.464;2024-02-15T07:19:44;100022.27;;;5.82;100.00
59588;BME280;45412;54.472;18.464;2024-02-15T07:22:31;100023.23;;;5.84;100.00
59588;BME280;45412;54.472;18.464;2024-02-15T07:25:20;100024.96;;;5.87;100.00
59588;BME280;45412;54.472;18.464;2024-02-15T07:28:06;100030.08;;;5.90;100.00
59588;BME280;45412;54.472;18.464;2024-02-15T07:30:54;100033.86;;;5.91;100.00
59588;BME280;45412;54.472;18.464;2024-02-15T07:33:40;100031.48;;;5.93;100.00
59588;BME280;45412;54.472;18.464;2024-02-15T07:36:29;100030.34;;;5.94;100.00
59588;BME280;45412;54.472;18.464;2024-02-15T07:39:15;100029.17;;;5.96;100.00
59588;BME280;45412;54.472;18.464;2024-02-15T07:42:09;100030.77;;;6.00;100.00
59588;BME280;45412;54.472;18.464;2024-02-15T07:44:56;100029.58;;;6.05;100.00
59588;BME280;45412;54.472;18.464;2024-02-15T07:47:42;100030.19;;;6.09;100.00
59588;BME280;45412;54.472;18.464;2024-02-15T07:50:29;100028.39;;;6.13;100.00
59588;BME280;45412;54.472;18.464;2024-02-15T07:53:16;100026.44;;;6.16;100.00
59588;BME280;45412;54.472;18.464;2024-02-15T07:56:01;100033.36;;;6.19;100.00
59588;BME280;45412;54.472;18.464;2024-02-15T07:58:48;100033.09;;;6.23;100.00
59588;BME280;45412;54.472;18.464;2024-02-15T08:01:43;100036.38;;;6.30;100.00
59588;BME280;45412;54.472;18.464;2024-02-15T08:04:31;100033.96;;;6.35;100.00
59588;BME280;45412;54.472;18.464;2024-02-15T08:07:19;100030.45;;;6.40;100.00
59588;BME280;45412;54.472;18.464;2024-02-15T08:10:07;100028.21;;;6.43;100.00
59588;BME280;45412;54.472;18.464;2024-02-15T08:12:59;100026.52;;;6.50;100.00
59588;BME280;45412;54.472;18.464;2024-02-15T08:15:45;100027.49;;;6.57;100.00
59588;BME280;45412;54.472;18.464;2024-02-15T08:18:32;100024.96;;;6.61;100.00
59588;BME280;45412;54.472;18.464;2024-02-15T08:21:25;100022.36;;;6.69;100.00
59588;BME280;45412;54.472;18.464;2024-02-15T08:24:11;100020.97;;;6.77;100.00
59588;BME280;45412;54.472;18.464;2024-02-15T08:26:57;100024.38;;;6.85;100.00
59588;BME280;45412;54.472;18.464;2024-02-15T08:29:45;100025.83;;;6.93;100.00
59588;BME280;45412;54.472;18.464;2024-02-15T08:32:31;100021.85;;;6.94;100.00
59588;BME280;45412;54.472;18.464;2024-02-15T08:35:17;100023.67;;;6.96;100.00
59588;BME280;45412;54.472;18.464;2024-02-15T08:38:04;100022.22;;;7.00;100.00
59588;BME280;45412;54.472;18.464;2024-02-15T08:40:52;100022.37;;;7.08;100.00
59588;BME280;45412;54.472;18.464;2024-02-15T08:43:38;100032.25;;;7.14;100.00
59588;BME280;45412;54.472;18.464;2024-02-15T08:46:28;100033.87;;;7.16;100.00
59588;BME280;45412;54.472;18.464;2024-02-15T08:49:14;100032.73;;;7.18;100.00
59588;BME280;45412;54.472;18.464;2024-02-15T08:52:01;100033.04;;;7.18;100.00
59588;BME280;45412;54.472;18.464;2024-02-15T08:54:47;100032.68;;;7.24;100.00
59588;BME280;45412;54.472;18.464;2024-02-15T08:57:34;100036.82;;;7.31;100.00
59588;BME280;45412;54.472;18.464;2024-02-15T09:00:20;100034.99;;;7.35;100.00
59588;BME280;45412;54.472;18.464;2024-02-15T09:03:06;100035.85;;;7.43;100.00
59588;BME280;45412;54.472;18.464;2024-02-15T09:05:54;100035.59;;;7.50;100.00
59588;BME280;45412;54.472;18.464;2024-02-15T09:08:40;100032.51;;;7.62;100.00
59588;BME280;45412;54.472;18.464;2024-02-15T09:11:30;100035.38;;;7.72;100.00
59588;BME280;45412;54.472;18.464;2024-02-15T09:14:16;100037.50;;;7.80;100.00
59588;BME280;45412;54.472;18.464;2024-02-15T09:17:03;100036.90;;;7.83;100.00
59588;BME280;45412;54.472;18.464;2024-02-15T09:19:54;100035.64;;;7.84;100.00
59588;BME280;45412;54.472;18.464;2024-02-15T09:22:51;100036.02;;;7.97;100.00
59588;BME280;45412;54.472;18.464;2024-02-15T09:25:38;100031.14;;;8.20;100.00
59588;BME280;45412;54.472;18.464;2024-02-15T09:28:24;100036.14;;;8.43;100.00
59588;BME280;45412;54.472;18.464;2024-02-15T09:31:12;100028.77;;;8.55;100.00
59588;BME280;45412;54.472;18.464;2024-02-15T09:33:59;100038.76;;;8.61;100.00
59588;BME280;45412;54.472;18.464;2024-02-15T09:36:46;100040.94;;;8.58;100.00
59588;BME280;45412;54.472;18.464;2024-02-15T09:39:31;100039.58;;;8.57;100.00
59588;BME280;45412;54.472;18.464;2024-02-15T09:42:18;100045.70;;;8.55;100.00
59588;BME280;45412;54.472;18.464;2024-02-15T09:45:05;100050.76;;;8.54;100.00
59588;BME280;45412;54.472;18.464;2024-02-15T09:47:52;100055.02;;;8.43;100.00
59588;BME280;45412;54.472;18.464;2024-02-15T09:50:39;100056.37;;;8.41;100.00
59588;BME280;45412;54.472;18.464;2024-02-15T09:53:29;100054.38;;;8.45;100.00
59588;BME280;45412;54.472;18.464;2024-02-15T09:56:15;100053.30;;;8.50;100.00
59588;BME280;45412;54.472;18.464;2024-02-15T09:59:02;100053.39;;;8.51;100.00
59588;BME280;45412;54.472;18.464;2024-02-15T10:01:49;100047.85;;;8.55;100.00
59588;BME280;45412;54.472;18.464;2024-02-15T10:04:36;100051.23;;;8.60;100.00
59588;BME280;45412;54.472;18.464;2024-02-15T10:07:24;100048.73;;;8.62;100.00
59588;BME280;45412;54.472;18.464;2024-02-15T10:10:20;100047.04;;;8.59;100.00
59588;BME280;45412;54.472;18.464;2024-02-15T10:13:13;100052.34;;;8.57;100.00
59588;BME280;45412;54.472;18.464;2024-02-15T10:15:59;100053.58;;;8.59;100.00
59588;BME280;45412;54.472;18.464;2024-02-15T10:18:46;100053.35;;;8.60;100.00
59588;BME280;45412;54.472;18.464;2024-02-15T10:21:35;100054.54;;;8.56;100.00
59588;BME280;45412;54.472;18.464;2024-02-15T10:24:25;100057.65;;;8.46;100.00
59588;BME280;45412;54.472;18.464;2024-02-15T10:27:11;100058.82;;;8.44;100.00
59588;BME280;45412;54.472;18.464;2024-02-15T10:30:22;100055.48;;;8.44;100.00
59588;BME280;45412;54.472;18.464;2024-02-15T10:33:27;100055.30;;;8.47;100.00
59588;BME280;45412;54.472;18.464;2024-02-15T10:36:23;100048.90;;;8.53;100.00
59588;BME280;45412;54.472;18.464;2024-02-15T10:39:14;100051.34;;;8.56;100.00
59588;BME280;45412;54.472;18.464;2024-02-15T10:42:07;100053.71;;;8.55;100.00
59588;BME280;45412;54.472;18.464;2024-02-15T10:44:53;100054.96;;;8.52;100.00
59588;BME280;45412;54.472;18.464;2024-02-15T10:47:40;100058.19;;;8.54;100.00
59588;BME280;45412;54.472;18.464;2024-02-15T10:50:28;100051.42;;;8.59;100.00
59588;BME280;45412;54.472;18.464;2024-02-15T10:53:27;100049.40;;;8.58;100.00
59588;BME280;45412;54.472;18.464;2024-02-15T10:56:18;100048.64;;;8.54;100.00
59588;BME280;45412;54.472;18.464;2024-02-15T10:59:19;100037.39;;;8.55;100.00
59588;BME280;45412;54.472;18.464;2024-02-15T11:05:18;100031.66;;;8.56;100.00
59588;BME280;45412;54.472;18.464;2024-02-15T11:08:09;100027.50;;;8.60;100.00
59588;BME280;45412;54.472;18.464;2024-02-15T11:10:56;100026.56;;;8.66;100.00
59588;BME280;45412;54.472;18.464;2024-02-15T11:13:46;100029.55;;;8.77;100.00
59588;BME280;45412;54.472;18.464;2024-02-15T11:16:43;100028.94;;;8.88;100.00
59588;BME280;45412;54.472;18.464;2024-02-15T11:22:33;100030.45;;;8.96;100.00
59588;BME280;45412;54.472;18.464;2024-02-15T11:25:31;100024.33;;;8.90;100.00
59588;BME280;45412;54.472;18.464;2024-02-15T11:28:36;100023.42;;;8.96;100.00
59588;BME280;45412;54.472;18.464;2024-02-15T11:31:54;100013.29;;;9.01;100.00
59588;BME280;45412;54.472;18.464;2024-02-15T11:34:44;100009.83;;;9.02;100.00
59588;BME280;45412;54.472;18.464;2024-02-15T11:43:49;100008.22;;;8.91;100.00
59588;BME280;45412;54.472;18.464;2024-02-15T11:46:43;100005.65;;;8.96;100.00
59588;BME280;45412;54.472;18.464;2024-02-15T11:49:30;100008.05;;;9.00;100.00
59588;BME280;45412;54.472;18.464;2024-02-15T11:52:19;100009.09;;;9.03;100.00
59588;BME280;45412;54.472;18.464;2024-02-15T11:55:07;100011.68;;;9.11;100.00
59588;BME280;45412;54.472;18.464;2024-02-15T11:58:01;100005.83;;;9.18;100.00
59588;BME280;45412;54.472;18.464;2024-02-15T12:01:00;100007.55;;;9.22;100.00
59588;BME280;45412;54.472;18.464;2024-02-15T12:04:05;100010.42;;;9.26;100.00
59588;BME280;45412;54.472;18.464;2024-02-15T12:07:10;100005.79;;;9.24;100.00
59588;BME280;45412;54.472;18.464;2024-02-15T12:10:17;100005.84;;;9.31;100.00
59588;BME280;45412;54.472;18.464;2024-02-15T12:13:22;100001.11;;;9.33;100.00
59588;BME280;45412;54.472;18.464;2024-02-15T12:16:31;100002.09;;;9.46;100.00
59588;BME280;45412;54.472;18.464;2024-02-15T12:19:36;100004.22;;;9.53;100.00
59588;BME280;45412;54.472;18.464;2024-02-15T12:22:34;100004.14;;;9.59;100.00
59588;BME280;45412;54.472;18.464;2024-02-15T12:25:26;100005.96;;;9.58;100.00
59588;BME280;45412;54.472;18.464;2024-02-15T12:28:13;100007.58;;;9.65;100.00
59588;BME280;45412;54.472;18.464;2024-02-15T12:31:02;100009.15;;;9.72;100.00
59588;BME280;45412;54.472;18.464;2024-02-15T12:34:02;100004.96;;;9.83;100.00
59588;BME280;45412;54.472;18.464;2024-02-15T12:37:05;100005.59;;;9.94;100.00
59588;BME280;45412;54.472;18.464;2024-02-15T12:39:54;100001.54;;;10.01;100.00
59588;BME280;45412;54.472;18.464;2024-02-15T12:42:40;99999.40;;;10.10;100.00
59588;BME280;45412;54.472;18.464;2024-02-15T12:45:27;99999.84;;;10.11;100.00
59588;BME280;45412;54.472;18.464;2024-02-15T12:48:14;100002.66;;;10.09;100.00
59588;BME280;45412;54.472;18.464;2024-02-15T12:51:14;99995.39;;;10.18;100.00
59588;BME280;45412;54.472;18.464;2024-02-15T12:54:09;99995.40;;;10.30;100.00
59588;BME280;45412;54.472;18.464;2024-02-15T12:57:09;99998.63;;;10.39;100.00
59588;BME280;45412;54.472;18.464;2024-02-15T12:59:59;99996.29;;;10.49;100.00
59588;BME280;45412;54.472;18.464;2024-02-15T13:02:50;100004.14;;;10.62;100.00
59588;BME280;45412;54.472;18.464;2024-02-15T13:05:38;100002.91;;;10.73;100.00
59588;BME280;45412;54.472;18.464;2024-02-15T13:08:25;100004.92;;;10.72;100.00
59588;BME280;45412;54.472;18.464;2024-02-15T13:11:11;100001.39;;;10.61;100.00
59588;BME280;45412;54.472;18.464;2024-02-15T13:13:58;100001.55;;;10.49;100.00
59588;BME280;45412;54.472;18.464;2024-02-15T13:16:44;100007.12;;;10.32;100.00
59588;BME280;45412;54.472;18.464;2024-02-15T13:19:32;100005.36;;;10.16;100.00
59588;BME280;45412;54.472;18.464;2024-02-15T13:22:22;100004.40;;;10.05;100.00
59588;BME280;45412;54.472;18.464;2024-02-15T13:25:08;99998.17;;;9.98;100.00
59588;BME280;45412;54.472;18.464;2024-02-15T13:27:56;99995.21;;;9.95;100.00
59588;BME280;45412;54.472;18.464;2024-02-15T13:30:43;99999.84;;;10.02;100.00
59588;BME280;45412;54.472;18.464;2024-02-15T13:33:31;100000.14;;;10.05;100.00
59588;BME280;45412;54.472;18.464;2024-02-15T13:36:19;99995.14;;;10.05;100.00
59588;BME280;45412;54.472;18.464;2024-02-15T13:39:05;99997.14;;;10.02;100.00
59588;BME280;45412;54.472;18.464;2024-02-15T13:41:55;99999.35;;;9.99;100.00
59588;BME280;45412;54.472;18.464;2024-02-15T13:44:45;100001.39;;;10.00;100.00
59588;BME280;45412;54.472;18.464;2024-02-15T13:47:33;100002.15;;;9.97;100.00
59588;BME280;45412;54.472;18.464;2024-02-15T13:50:20;100006.70;;;10.00;100.00
59588;BME280;45412;54.472;18.464;2024-02-15T13:53:06;100007.52;;;10.01;100.00
59588;BME280;45412;54.472;18.464;2024-02-15T13:55:54;100009.21;;;10.00;100.00
59588;BME280;45412;54.472;18.464;2024-02-15T13:58:41;100006.92;;;10.00;100.00
59588;BME280;45412;54.472;18.464;2024-02-15T14:01:27;100003.70;;;10.00;100.00
59588;BME280;45412;54.472;18.464;2024-02-15T14:04:14;100004.42;;;10.02;100.00
59588;BME280;45412;54.472;18.464;2024-02-15T14:07:02;100005.08;;;10.05;100.00
59588;BME280;45412;54.472;18.464;2024-02-15T14:09:49;100004.64;;;10.07;100.00
59588;BME280;45412;54.472;18.464;2024-02-15T14:12:48;100006.46;;;10.01;100.00
59588;BME280;45412;54.472;18.464;2024-02-15T14:15:35;100008.75;;;9.99;100.00
59588;BME280;45412;54.472;18.464;2024-02-15T14:18:24;100008.16;;;9.93;100.00
59588;BME280;45412;54.472;18.464;2024-02-15T14:21:11;100008.54;;;9.88;100.00
59588;BME280;45412;54.472;18.464;2024-02-15T14:23:57;100006.40;;;9.81;100.00
59588;BME280;45412;54.472;18.464;2024-02-15T14:26:44;100006.77;;;9.83;100.00
59588;BME280;45412;54.472;18.464;2024-02-15T14:29:30;100014.11;;;9.87;100.00
59588;BME280;45412;54.472;18.464;2024-02-15T14:32:18;100014.56;;;9.85;100.00
59588;BME280;45412;54.472;18.464;2024-02-15T14:35:23;100014.77;;;9.82;100.00
59588;BME280;45412;54.472;18.464;2024-02-15T14:38:12;100010.77;;;9.77;100.00
59588;BME280;45412;54.472;18.464;2024-02-15T14:40:58;100015.65;;;9.68;100.00
59588;BME280;45412;54.472;18.464;2024-02-15T14:43:46;100013.21;;;9.61;100.00
59588;BME280;45412;54.472;18.464;2024-02-15T14:46:33;100019.57;;;9.59;100.00